CSF2 weather

Public forecast

Using degrees Celsius for public forecast. Weather courtesy of forecast.io.

Closest aviation weather report (METAR) to Innisfail Hospital Heliport

Closest report is Red Deer Regional Airport, 10.0 nm (18.6 km) NNE. Retrieved 2020/08/09 14:00 UTC (5 minutes ago):

CYQF 091400Z 29007KT 15SM FEW090 09/04 A3008 RMK AC2 SLP205

Closest aviation forecast (TAF) to Innisfail Hospital Heliport

Closest forecast is Red Deer Regional Airport, 10.0 nm (18.6 km) NNE. Retrieved 2020/08/09 12:42 UTC (1 hour ago):

TAF CYQF 091138Z 0912/0924 28008KT P6SM SCT080 FM091500 30012G22KT P6SM FEW060 RMK FCST BASED ON AUTO OBS NXT FCST BY 091800Z